sensor_id;sensor_type;location;lat;lon;timestamp;P1;durP1;ratioP1;P2;durP2;ratioP2
577;SDS011;275;48.492;9.214;2023-03-01T00:02:15;31.25;;;28.20;;
577;SDS011;275;48.492;9.214;2023-03-01T00:04:42;32.17;;;29.17;;
577;SDS011;275;48.492;9.214;2023-03-01T00:07:09;34.75;;;31.35;;
577;SDS011;275;48.492;9.214;2023-03-01T00:09:36;33.08;;;30.17;;
577;SDS011;275;48.492;9.214;2023-03-01T00:12:06;35.42;;;32.20;;
577;SDS011;275;48.492;9.214;2023-03-01T00:14:33;31.40;;;28.27;;
577;SDS011;275;48.492;9.214;2023-03-01T00:17:00;31.88;;;28.85;;
577;SDS011;275;48.492;9.214;2023-03-01T00:19:27;34.42;;;31.23;;
577;SDS011;275;48.492;9.214;2023-03-01T00:21:54;35.47;;;32.03;;
577;SDS011;275;48.492;9.214;2023-03-01T00:24:20;35.25;;;32.10;;
577;SDS011;275;48.492;9.214;2023-03-01T00:26:47;44.65;;;40.20;;
577;SDS011;275;48.492;9.214;2023-03-01T00:29:16;38.78;;;35.28;;
577;SDS011;275;48.492;9.214;2023-03-01T00:31:43;34.20;;;30.88;;
577;SDS011;275;48.492;9.214;2023-03-01T00:34:10;36.05;;;32.63;;
577;SDS011;275;48.492;9.214;2023-03-01T00:36:36;32.25;;;29.33;;
577;SDS011;275;48.492;9.214;2023-03-01T00:39:04;33.17;;;30.08;;
577;SDS011;275;48.492;9.214;2023-03-01T00:41:32;31.90;;;28.95;;
577;SDS011;275;48.492;9.214;2023-03-01T00:43:59;35.53;;;32.15;;
577;SDS011;275;48.492;9.214;2023-03-01T00:46:27;35.58;;;32.47;;
577;SDS011;275;48.492;9.214;2023-03-01T00:48:55;34.38;;;31.17;;
577;SDS011;275;48.492;9.214;2023-03-01T00:51:23;35.35;;;32.00;;
577;SDS011;275;48.492;9.214;2023-03-01T00:53:51;35.05;;;31.85;;
577;SDS011;275;48.492;9.214;2023-03-01T00:56:19;35.42;;;32.25;;
577;SDS011;275;48.492;9.214;2023-03-01T00:58:46;35.28;;;31.98;;
577;SDS011;275;48.492;9.214;2023-03-01T01:01:13;34.72;;;31.52;;
577;SDS011;275;48.492;9.214;2023-03-01T01:03:45;36.72;;;32.95;;
577;SDS011;275;48.492;9.214;2023-03-01T01:06:13;36.95;;;33.55;;
577;SDS011;275;48.492;9.214;2023-03-01T01:08:44;35.03;;;31.80;;
577;SDS011;275;48.492;9.214;2023-03-01T01:11:10;32.92;;;29.98;;
577;SDS011;275;48.492;9.214;2023-03-01T01:13:38;31.77;;;28.77;;
577;SDS011;275;48.492;9.214;2023-03-01T01:16:06;32.65;;;29.75;;
577;SDS011;275;48.492;9.214;2023-03-01T01:18:33;30.80;;;27.90;;
577;SDS011;275;48.492;9.214;2023-03-01T01:21:04;33.08;;;30.08;;
577;SDS011;275;48.492;9.214;2023-03-01T01:23:32;31.58;;;28.58;;
577;SDS011;275;48.492;9.214;2023-03-01T01:26:02;31.48;;;28.65;;
577;SDS011;275;48.492;9.214;2023-03-01T01:28:30;30.63;;;27.80;;
577;SDS011;275;48.492;9.214;2023-03-01T01:30:57;31.90;;;28.85;;
577;SDS011;275;48.492;9.214;2023-03-01T01:33:24;30.08;;;27.38;;
577;SDS011;275;48.492;9.214;2023-03-01T01:35:51;30.33;;;27.63;;
577;SDS011;275;48.492;9.214;2023-03-01T01:38:20;31.15;;;27.95;;
577;SDS011;275;48.492;9.214;2023-03-01T01:40:47;31.10;;;28.20;;
577;SDS011;275;48.492;9.214;2023-03-01T01:43:17;28.55;;;25.95;;
577;SDS011;275;48.492;9.214;2023-03-01T01:45:46;32.30;;;29.23;;
577;SDS011;275;48.492;9.214;2023-03-01T01:48:15;31.25;;;28.27;;
577;SDS011;275;48.492;9.214;2023-03-01T01:50:45;29.20;;;26.60;;
577;SDS011;275;48.492;9.214;2023-03-01T01:53:16;31.98;;;29.02;;
577;SDS011;275;48.492;9.214;2023-03-01T01:55:47;32.05;;;29.20;;
577;SDS011;275;48.492;9.214;2023-03-01T01:58:18;32.58;;;29.50;;
577;SDS011;275;48.492;9.214;2023-03-01T02:00:46;31.15;;;28.35;;
577;SDS011;275;48.492;9.214;2023-03-01T02:03:15;31.08;;;28.23;;
577;SDS011;275;48.492;9.214;2023-03-01T02:05:46;31.55;;;28.40;;
577;SDS011;275;48.492;9.214;2023-03-01T02:08:18;31.40;;;28.63;;
577;SDS011;275;48.492;9.214;2023-03-01T02:10:49;30.80;;;28.00;;
577;SDS011;275;48.492;9.214;2023-03-01T02:13:17;30.98;;;27.95;;
577;SDS011;275;48.492;9.214;2023-03-01T02:15:44;30.98;;;27.92;;
577;SDS011;275;48.492;9.214;2023-03-01T02:18:12;28.98;;;26.38;;
577;SDS011;275;48.492;9.214;2023-03-01T02:20:44;30.23;;;27.42;;
577;SDS011;275;48.492;9.214;2023-03-01T02:23:18;30.30;;;27.60;;
577;SDS011;275;48.492;9.214;2023-03-01T02:25:49;30.60;;;27.80;;
577;SDS011;275;48.492;9.214;2023-03-01T02:28:27;29.50;;;26.80;;
577;SDS011;275;48.492;9.214;2023-03-01T02:30:56;32.33;;;29.40;;
577;SDS011;275;48.492;9.214;2023-03-01T02:33:41;31.77;;;28.83;;
577;SDS011;275;48.492;9.214;2023-03-01T02:36:09;29.02;;;26.45;;
577;SDS011;275;48.492;9.214;2023-03-01T02:38:40;29.92;;;27.25;;
577;SDS011;275;48.492;9.214;2023-03-01T02:41:07;31.33;;;28.20;;
577;SDS011;275;48.492;9.214;2023-03-01T02:43:38;30.02;;;27.20;;
577;SDS011;275;48.492;9.214;2023-03-01T02:46:05;30.15;;;27.33;;
577;SDS011;275;48.492;9.214;2023-03-01T02:48:40;29.67;;;26.88;;
577;SDS011;275;48.492;9.214;2023-03-01T02:51:11;28.95;;;26.25;;
577;SDS011;275;48.492;9.214;2023-03-01T02:53:49;27.42;;;25.00;;
577;SDS011;275;48.492;9.214;2023-03-01T02:56:29;30.13;;;27.25;;
577;SDS011;275;48.492;9.214;2023-03-01T02:58:57;27.75;;;25.23;;
577;SDS011;275;48.492;9.214;2023-03-01T03:01:26;28.73;;;25.58;;
577;SDS011;275;48.492;9.214;2023-03-01T03:04:01;28.77;;;26.05;;
577;SDS011;275;48.492;9.214;2023-03-01T03:06:29;28.60;;;26.00;;
577;SDS011;275;48.492;9.214;2023-03-01T03:08:56;31.15;;;28.35;;
577;SDS011;275;48.492;9.214;2023-03-01T03:11:23;27.70;;;25.30;;
577;SDS011;275;48.492;9.214;2023-03-01T03:13:49;28.75;;;26.10;;
577;SDS011;275;48.492;9.214;2023-03-01T03:16:18;28.90;;;26.35;;
577;SDS011;275;48.492;9.214;2023-03-01T03:18:45;29.70;;;26.83;;
577;SDS011;275;48.492;9.214;2023-03-01T03:21:13;31.23;;;28.52;;
577;SDS011;275;48.492;9.214;2023-03-01T03:23:41;29.77;;;27.17;;
577;SDS011;275;48.492;9.214;2023-03-01T03:26:08;30.92;;;28.00;;
577;SDS011;275;48.492;9.214;2023-03-01T03:28:40;28.33;;;25.70;;
577;SDS011;275;48.492;9.214;2023-03-01T03:31:07;29.05;;;26.40;;
577;SDS011;275;48.492;9.214;2023-03-01T03:33:35;29.52;;;26.90;;
577;SDS011;275;48.492;9.214;2023-03-01T03:36:02;29.90;;;27.30;;
577;SDS011;275;48.492;9.214;2023-03-01T03:38:30;28.80;;;26.30;;
577;SDS011;275;48.492;9.214;2023-03-01T03:41:00;32.35;;;29.20;;
577;SDS011;275;48.492;9.214;2023-03-01T03:43:29;31.38;;;28.38;;
577;SDS011;275;48.492;9.214;2023-03-01T03:45:56;30.70;;;28.02;;
577;SDS011;275;48.492;9.214;2023-03-01T03:48:23;28.05;;;25.15;;
577;SDS011;275;48.492;9.214;2023-03-01T03:50:53;30.55;;;27.65;;
577;SDS011;275;48.492;9.214;2023-03-01T03:53:21;28.70;;;26.25;;
577;SDS011;275;48.492;9.214;2023-03-01T03:55:49;30.23;;;27.25;;
577;SDS011;275;48.492;9.214;2023-03-01T03:58:16;29.13;;;26.38;;
577;SDS011;275;48.492;9.214;2023-03-01T04:00:44;29.27;;;26.65;;
577;SDS011;275;48.492;9.214;2023-03-01T04:03:13;30.40;;;27.42;;
577;SDS011;275;48.492;9.214;2023-03-01T04:05:41;28.80;;;26.20;;
577;SDS011;275;48.492;9.214;2023-03-01T04:08:10;28.27;;;25.75;;
577;SDS011;275;48.492;9.214;2023-03-01T04:10:38;29.90;;;27.10;;
577;SDS011;275;48.492;9.214;2023-03-01T04:13:06;29.92;;;26.98;;
577;SDS011;275;48.492;9.214;2023-03-01T04:15:35;30.13;;;27.05;;
577;SDS011;275;48.492;9.214;2023-03-01T04:18:02;28.70;;;26.13;;
577;SDS011;275;48.492;9.214;2023-03-01T04:20:30;31.85;;;28.85;;
577;SDS011;275;48.492;9.214;2023-03-01T04:23:00;29.60;;;26.85;;
577;SDS011;275;48.492;9.214;2023-03-01T04:25:36;30.10;;;27.30;;
577;SDS011;275;48.492;9.214;2023-03-01T04:28:05;29.52;;;26.80;;
577;SDS011;275;48.492;9.214;2023-03-01T04:30:32;29.00;;;26.38;;
577;SDS011;275;48.492;9.214;2023-03-01T04:33:01;32.17;;;29.15;;
577;SDS011;275;48.492;9.214;2023-03-01T04:35:29;33.45;;;30.33;;
577;SDS011;275;48.492;9.214;2023-03-01T04:37:56;31.73;;;28.85;;
577;SDS011;275;48.492;9.214;2023-03-01T04:40:23;31.98;;;29.00;;
577;SDS011;275;48.492;9.214;2023-03-01T04:42:51;31.77;;;28.67;;
577;SDS011;275;48.492;9.214;2023-03-01T04:45:18;32.70;;;29.73;;
577;SDS011;275;48.492;9.214;2023-03-01T04:47:45;31.17;;;28.30;;
577;SDS011;275;48.492;9.214;2023-03-01T04:50:13;30.65;;;27.92;;
577;SDS011;275;48.492;9.214;2023-03-01T04:52:42;30.55;;;27.70;;
577;SDS011;275;48.492;9.214;2023-03-01T04:55:09;29.55;;;26.75;;
577;SDS011;275;48.492;9.214;2023-03-01T04:57:36;31.55;;;28.67;;
577;SDS011;275;48.492;9.214;2023-03-01T05:00:06;31.33;;;28.33;;
577;SDS011;275;48.492;9.214;2023-03-01T05:02:45;31.08;;;27.77;;
577;SDS011;275;48.492;9.214;2023-03-01T05:05:13;31.00;;;28.20;;
577;SDS011;275;48.492;9.214;2023-03-01T05:07:40;31.08;;;28.35;;
577;SDS011;275;48.492;9.214;2023-03-01T05:10:07;30.25;;;27.38;;
577;SDS011;275;48.492;9.214;2023-03-01T05:12:35;30.38;;;27.50;;
577;SDS011;275;48.492;9.214;2023-03-01T05:15:02;30.20;;;27.48;;
577;SDS011;275;48.492;9.214;2023-03-01T05:17:32;31.48;;;28.60;;
577;SDS011;275;48.492;9.214;2023-03-01T05:19:59;32.25;;;29.10;;
577;SDS011;275;48.492;9.214;2023-03-01T05:22:26;31.08;;;28.27;;
577;SDS011;275;48.492;9.214;2023-03-01T05:24:52;31.38;;;28.20;;
577;SDS011;275;48.492;9.214;2023-03-01T05:27:20;30.85;;;28.02;;
577;SDS011;275;48.492;9.214;2023-03-01T05:29:47;30.65;;;27.75;;
577;SDS011;275;48.492;9.214;2023-03-01T05:32:15;31.90;;;28.70;;
577;SDS011;275;48.492;9.214;2023-03-01T05:34:42;33.42;;;30.27;;
577;SDS011;275;48.492;9.214;2023-03-01T05:37:11;30.80;;;27.88;;
577;SDS011;275;48.492;9.214;2023-03-01T05:39:39;32.10;;;29.00;;
577;SDS011;275;48.492;9.214;2023-03-01T05:42:10;32.58;;;29.70;;
577;SDS011;275;48.492;9.214;2023-03-01T05:44:37;32.53;;;29.63;;
577;SDS011;275;48.492;9.214;2023-03-01T05:47:04;33.50;;;30.33;;
577;SDS011;275;48.492;9.214;2023-03-01T05:49:32;31.33;;;28.23;;
577;SDS011;275;48.492;9.214;2023-03-01T05:51:59;31.10;;;28.10;;
577;SDS011;275;48.492;9.214;2023-03-01T05:54:26;33.45;;;30.33;;
577;SDS011;275;48.492;9.214;2023-03-01T05:56:53;32.15;;;29.05;;
577;SDS011;275;48.492;9.214;2023-03-01T05:59:21;33.65;;;30.25;;
577;SDS011;275;48.492;9.214;2023-03-01T06:01:48;33.67;;;30.48;;
577;SDS011;275;48.492;9.214;2023-03-01T06:04:15;33.00;;;29.60;;
577;SDS011;275;48.492;9.214;2023-03-01T06:06:43;31.05;;;28.15;;
577;SDS011;275;48.492;9.214;2023-03-01T06:09:10;34.85;;;31.48;;
577;SDS011;275;48.492;9.214;2023-03-01T06:11:36;35.38;;;31.98;;
577;SDS011;275;48.492;9.214;2023-03-01T06:14:03;34.03;;;30.73;;
577;SDS011;275;48.492;9.214;2023-03-01T06:16:32;35.40;;;32.30;;
577;SDS011;275;48.492;9.214;2023-03-01T06:18:59;33.72;;;30.45;;
577;SDS011;275;48.492;9.214;2023-03-01T06:21:26;32.97;;;29.92;;
577;SDS011;275;48.492;9.214;2023-03-01T06:23:54;33.85;;;30.55;;
577;SDS011;275;48.492;9.214;2023-03-01T06:26:21;34.17;;;31.15;;
577;SDS011;275;48.492;9.214;2023-03-01T06:28:48;33.78;;;30.63;;
577;SDS011;275;48.492;9.214;2023-03-01T06:31:14;33.92;;;30.77;;
577;SDS011;275;48.492;9.214;2023-03-01T06:33:42;33.40;;;30.35;;
577;SDS011;275;48.492;9.214;2023-03-01T06:36:10;32.65;;;29.48;;
577;SDS011;275;48.492;9.214;2023-03-01T06:38:36;35.08;;;31.58;;
577;SDS011;275;48.492;9.214;2023-03-01T06:41:07;34.22;;;30.95;;
577;SDS011;275;48.492;9.214;2023-03-01T06:43:33;33.60;;;30.45;;
577;SDS011;275;48.492;9.214;2023-03-01T06:46:03;32.40;;;29.48;;
577;SDS011;275;48.492;9.214;2023-03-01T06:48:31;36.13;;;32.63;;
577;SDS011;275;48.492;9.214;2023-03-01T06:50:58;34.22;;;31.40;;
577;SDS011;275;48.492;9.214;2023-03-01T06:53:26;35.50;;;32.05;;
577;SDS011;275;48.492;9.214;2023-03-01T06:55:53;37.40;;;33.92;;
577;SDS011;275;48.492;9.214;2023-03-01T06:58:22;36.78;;;33.25;;
577;SDS011;275;48.492;9.214;2023-03-01T07:00:49;35.38;;;32.30;;
577;SDS011;275;48.492;9.214;2023-03-01T07:03:16;36.08;;;32.40;;
577;SDS011;275;48.492;9.214;2023-03-01T07:05:43;33.17;;;29.92;;
577;SDS011;275;48.492;9.214;2023-03-01T07:08:10;33.83;;;30.55;;
577;SDS011;275;48.492;9.214;2023-03-01T07:10:37;31.17;;;28.15;;
577;SDS011;275;48.492;9.214;2023-03-01T07:13:04;35.35;;;32.15;;
577;SDS011;275;48.492;9.214;2023-03-01T07:15:33;33.80;;;30.63;;
577;SDS011;275;48.492;9.214;2023-03-01T07:18:00;35.58;;;32.28;;
577;SDS011;275;48.492;9.214;2023-03-01T07:20:27;34.78;;;31.25;;
577;SDS011;275;48.492;9.214;2023-03-01T07:22:55;35.53;;;32.22;;
577;SDS011;275;48.492;9.214;2023-03-01T07:25:23;34.80;;;31.52;;
577;SDS011;275;48.492;9.214;2023-03-01T07:27:50;33.80;;;30.55;;
577;SDS011;275;48.492;9.214;2023-03-01T07:30:18;34.92;;;31.63;;
577;SDS011;275;48.492;9.214;2023-03-01T07:32:47;36.55;;;33.35;;
577;SDS011;275;48.492;9.214;2023-03-01T07:35:13;35.40;;;32.10;;
577;SDS011;275;48.492;9.214;2023-03-01T07:37:40;37.13;;;33.50;;
577;SDS011;275;48.492;9.214;2023-03-01T07:40:08;33.95;;;30.73;;
577;SDS011;275;48.492;9.214;2023-03-01T07:42:36;35.35;;;31.95;;
577;SDS011;275;48.492;9.214;2023-03-01T07:45:03;33.92;;;30.73;;
577;SDS011;275;48.492;9.214;2023-03-01T07:47:31;34.13;;;30.70;;
577;SDS011;275;48.492;9.214;2023-03-01T07:49:59;32.70;;;29.83;;
577;SDS011;275;48.492;9.214;2023-03-01T07:52:27;35.17;;;31.77;;
577;SDS011;275;48.492;9.214;2023-03-01T07:54:55;34.30;;;31.10;;
577;SDS011;275;48.492;9.214;2023-03-01T07:57:22;35.25;;;31.75;;
577;SDS011;275;48.492;9.214;2023-03-01T07:59:49;37.15;;;33.85;;
577;SDS011;275;48.492;9.214;2023-03-01T08:02:16;35.30;;;31.55;;
577;SDS011;275;48.492;9.214;2023-03-01T08:04:43;34.92;;;31.70;;
577;SDS011;275;48.492;9.214;2023-03-01T08:07:11;31.63;;;28.63;;
577;SDS011;275;48.492;9.214;2023-03-01T08:09:38;33.05;;;29.65;;
577;SDS011;275;48.492;9.214;2023-03-01T08:12:05;32.65;;;29.55;;
577;SDS011;275;48.492;9.214;2023-03-01T08:14:32;32.50;;;29.45;;
577;SDS011;275;48.492;9.214;2023-03-01T08:16:59;34.70;;;29.40;;
577;SDS011;275;48.492;9.214;2023-03-01T08:19:27;34.55;;;30.08;;
577;SDS011;275;48.492;9.214;2023-03-01T08:21:54;35.70;;;32.15;;
577;SDS011;275;48.492;9.214;2023-03-01T08:24:24;32.70;;;29.25;;
577;SDS011;275;48.492;9.214;2023-03-01T08:26:51;32.00;;;28.73;;
577;SDS011;275;48.492;9.214;2023-03-01T08:29:18;30.25;;;27.45;;
577;SDS011;275;48.492;9.214;2023-03-01T08:31:45;33.25;;;30.05;;
577;SDS011;275;48.492;9.214;2023-03-01T08:34:13;33.15;;;29.98;;
577;SDS011;275;48.492;9.214;2023-03-01T08:36:42;32.75;;;29.45;;
577;SDS011;275;48.492;9.214;2023-03-01T08:39:10;37.03;;;30.95;;
577;SDS011;275;48.492;9.214;2023-03-01T08:41:40;32.72;;;29.52;;
577;SDS011;275;48.492;9.214;2023-03-01T08:44:08;32.42;;;29.05;;
577;SDS011;275;48.492;9.214;2023-03-01T08:46:36;29.90;;;26.77;;
577;SDS011;275;48.492;9.214;2023-03-01T08:49:05;31.80;;;28.75;;
577;SDS011;275;48.492;9.214;2023-03-01T08:51:33;30.48;;;27.48;;
577;SDS011;275;48.492;9.214;2023-03-01T08:54:01;33.03;;;30.13;;
577;SDS011;275;48.492;9.214;2023-03-01T08:56:28;29.15;;;26.35;;
577;SDS011;275;48.492;9.214;2023-03-01T08:58:57;29.60;;;26.73;;
577;SDS011;275;48.492;9.214;2023-03-01T09:01:23;34.97;;;31.30;;
577;SDS011;275;48.492;9.214;2023-03-01T09:03:50;33.22;;;29.98;;
577;SDS011;275;48.492;9.214;2023-03-01T09:06:17;31.00;;;27.90;;
577;SDS011;275;48.492;9.214;2023-03-01T09:08:45;29.20;;;26.60;;
577;SDS011;275;48.492;9.214;2023-03-01T09:11:14;31.02;;;28.15;;
577;SDS011;275;48.492;9.214;2023-03-01T09:13:44;29.90;;;27.02;;
577;SDS011;275;48.492;9.214;2023-03-01T09:16:13;29.83;;;27.02;;
577;SDS011;275;48.492;9.214;2023-03-01T09:18:41;29.83;;;27.10;;
577;SDS011;275;48.492;9.214;2023-03-01T09:21:09;31.15;;;28.15;;
577;SDS011;275;48.492;9.214;2023-03-01T09:23:37;31.08;;;28.17;;
577;SDS011;275;48.492;9.214;2023-03-01T09:26:05;31.88;;;28.70;;
577;SDS011;275;48.492;9.214;2023-03-01T09:28:32;30.88;;;28.00;;
577;SDS011;275;48.492;9.214;2023-03-01T09:30:58;34.30;;;30.98;;
577;SDS011;275;48.492;9.214;2023-03-01T09:33:27;30.55;;;27.77;;
577;SDS011;275;48.492;9.214;2023-03-01T09:35:58;29.35;;;26.55;;
577;SDS011;275;48.492;9.214;2023-03-01T09:38:25;30.88;;;27.95;;
577;SDS011;275;48.492;9.214;2023-03-01T09:40:53;30.67;;;27.88;;
577;SDS011;275;48.492;9.214;2023-03-01T09:43:21;29.55;;;26.75;;
577;SDS011;275;48.492;9.214;2023-03-01T09:45:54;31.10;;;28.38;;
577;SDS011;275;48.492;9.214;2023-03-01T09:48:26;31.38;;;28.55;;
577;SDS011;275;48.492;9.214;2023-03-01T09:50:58;31.15;;;28.20;;
577;SDS011;275;48.492;9.214;2023-03-01T09:53:30;31.05;;;28.02;;
577;SDS011;275;48.492;9.214;2023-03-01T09:56:01;29.05;;;26.15;;
577;SDS011;275;48.492;9.214;2023-03-01T09:58:39;30.48;;;27.70;;
577;SDS011;275;48.492;9.214;2023-03-01T10:01:21;30.13;;;27.35;;
577;SDS011;275;48.492;9.214;2023-03-01T10:04:02;32.53;;;29.42;;
577;SDS011;275;48.492;9.214;2023-03-01T10:06:38;28.60;;;25.70;;
577;SDS011;275;48.492;9.214;2023-03-01T10:09:10;28.23;;;25.58;;
577;SDS011;275;48.492;9.214;2023-03-01T10:11:41;25.50;;;22.90;;
577;SDS011;275;48.492;9.214;2023-03-01T10:14:14;22.67;;;20.23;;
577;SDS011;275;48.492;9.214;2023-03-01T10:16:51;23.33;;;20.92;;
577;SDS011;275;48.492;9.214;2023-03-01T10:19:25;22.83;;;20.60;;
577;SDS011;275;48.492;9.214;2023-03-01T10:21:57;22.93;;;20.70;;
577;SDS011;275;48.492;9.214;2023-03-01T10:24:27;21.20;;;19.07;;
577;SDS011;275;48.492;9.214;2023-03-01T10:27:01;19.97;;;17.87;;
577;SDS011;275;48.492;9.214;2023-03-01T10:29:34;22.10;;;19.03;;
577;SDS011;275;48.492;9.214;2023-03-01T10:32:10;20.10;;;18.20;;
577;SDS011;275;48.492;9.214;2023-03-01T10:34:38;20.50;;;18.30;;
577;SDS011;275;48.492;9.214;2023-03-01T10:37:10;20.53;;;18.57;;
577;SDS011;275;48.492;9.214;2023-03-01T10:39:41;22.77;;;20.57;;
577;SDS011;275;48.492;9.214;2023-03-01T10:42:23;21.77;;;19.47;;
577;SDS011;275;48.492;9.214;2023-03-01T10:44:53;20.50;;;18.50;;
577;SDS011;275;48.492;9.214;2023-03-01T10:47:21;21.23;;;19.30;;
577;SDS011;275;48.492;9.214;2023-03-01T10:49:55;20.33;;;18.43;;
577;SDS011;275;48.492;9.214;2023-03-01T10:52:25;20.40;;;18.40;;
577;SDS011;275;48.492;9.214;2023-03-01T10:55:01;22.07;;;20.17;;
577;SDS011;275;48.492;9.214;2023-03-01T10:57:31;20.87;;;18.87;;
577;SDS011;275;48.492;9.214;2023-03-01T11:03:01;21.77;;;19.67;;
577;SDS011;275;48.492;9.214;2023-03-01T11:05:37;21.90;;;20.00;;
577;SDS011;275;48.492;9.214;2023-03-01T11:08:38;20.40;;;18.60;;
577;SDS011;275;48.492;9.214;2023-03-01T11:13:58;21.70;;;19.60;;
577;SDS011;275;48.492;9.214;2023-03-01T11:16:33;20.13;;;18.33;;
577;SDS011;275;48.492;9.214;2023-03-01T11:19:17;22.50;;;20.53;;
577;SDS011;275;48.492;9.214;2023-03-01T11:21:55;20.87;;;18.87;;
577;SDS011;275;48.492;9.214;2023-03-01T11:24:29;21.83;;;19.40;;
577;SDS011;275;48.492;9.214;2023-03-01T11:27:00;22.05;;;19.85;;
577;SDS011;275;48.492;9.214;2023-03-01T11:29:30;22.67;;;20.40;;
577;SDS011;275;48.492;9.214;2023-03-01T11:32:02;22.88;;;20.88;;
577;SDS011;275;48.492;9.214;2023-03-01T11:37:03;22.35;;;20.25;;
577;SDS011;275;48.492;9.214;2023-03-01T11:39:39;24.50;;;22.15;;
577;SDS011;275;48.492;9.214;2023-03-01T11:42:15;24.30;;;21.92;;
577;SDS011;275;48.492;9.214;2023-03-01T11:44:46;23.80;;;21.52;;
577;SDS011;275;48.492;9.214;2023-03-01T11:47:25;23.67;;;21.40;;
577;SDS011;275;48.492;9.214;2023-03-01T11:50:14;25.27;;;22.83;;
577;SDS011;275;48.492;9.214;2023-03-01T11:52:51;21.30;;;19.30;;
577;SDS011;275;48.492;9.214;2023-03-01T11:55:35;21.67;;;19.48;;
577;SDS011;275;48.492;9.214;2023-03-01T11:58:17;21.52;;;19.58;;
577;SDS011;275;48.492;9.214;2023-03-01T12:01:02;21.40;;;19.40;;
577;SDS011;275;48.492;9.214;2023-03-01T12:03:41;22.13;;;20.10;;
577;SDS011;275;48.492;9.214;2023-03-01T12:06:39;21.83;;;19.73;;
577;SDS011;275;48.492;9.214;2023-03-01T12:09:24;23.05;;;20.83;;
577;SDS011;275;48.492;9.214;2023-03-01T12:12:07;23.67;;;21.38;;
577;SDS011;275;48.492;9.214;2023-03-01T12:18:00;25.25;;;22.75;;
577;SDS011;275;48.492;9.214;2023-03-01T12:20:41;23.48;;;21.17;;
577;SDS011;275;48.492;9.214;2023-03-01T12:26:19;22.33;;;20.02;;
577;SDS011;275;48.492;9.214;2023-03-01T12:28:54;25.13;;;22.70;;
577;SDS011;275;48.492;9.214;2023-03-01T12:31:39;23.65;;;21.15;;
577;SDS011;275;48.492;9.214;2023-03-01T12:34:46;23.25;;;21.08;;
577;SDS011;275;48.492;9.214;2023-03-01T12:37:27;22.63;;;20.42;;
577;SDS011;275;48.492;9.214;2023-03-01T12:43:01;19.93;;;18.00;;
577;SDS011;275;48.492;9.214;2023-03-01T12:45:43;17.60;;;15.80;;
577;SDS011;275;48.492;9.214;2023-03-01T12:48:30;18.17;;;16.33;;
577;SDS011;275;48.492;9.214;2023-03-01T12:51:07;17.07;;;15.43;;
577;SDS011;275;48.492;9.214;2023-03-01T12:53:39;18.07;;;16.30;;
577;SDS011;275;48.492;9.214;2023-03-01T12:56:08;18.73;;;16.80;;
577;SDS011;275;48.492;9.214;2023-03-01T12:58:41;18.73;;;16.97;;
577;SDS011;275;48.492;9.214;2023-03-01T13:01:15;18.60;;;16.60;;
577;SDS011;275;48.492;9.214;2023-03-01T13:04:06;17.57;;;15.80;;
577;SDS011;275;48.492;9.214;2023-03-01T13:06:43;17.57;;;15.80;;
577;SDS011;275;48.492;9.214;2023-03-01T13:09:19;19.03;;;17.20;;
577;SDS011;275;48.492;9.214;2023-03-01T13:11:51;19.10;;;17.07;;
577;SDS011;275;48.492;9.214;2023-03-01T13:14:35;17.70;;;16.00;;
577;SDS011;275;48.492;9.214;2023-03-01T13:17:04;19.17;;;17.23;;
577;SDS011;275;48.492;9.214;2023-03-01T13:19:57;18.83;;;17.03;;
577;SDS011;275;48.492;9.214;2023-03-01T13:22:25;20.17;;;18.20;;
577;SDS011;275;48.492;9.214;2023-03-01T13:25:03;19.97;;;18.10;;
577;SDS011;275;48.492;9.214;2023-03-01T13:27:39;19.60;;;17.70;;
577;SDS011;275;48.492;9.214;2023-03-01T13:30:37;19.87;;;17.77;;
577;SDS011;275;48.492;9.214;2023-03-01T13:36:01;20.53;;;17.60;;
577;SDS011;275;48.492;9.214;2023-03-01T13:38:46;19.20;;;17.17;;
577;SDS011;275;48.492;9.214;2023-03-01T13:41:14;18.43;;;16.43;;
577;SDS011;275;48.492;9.214;2023-03-01T13:43:43;17.53;;;15.90;;
577;SDS011;275;48.492;9.214;2023-03-01T13:46:16;20.77;;;16.73;;
577;SDS011;275;48.492;9.214;2023-03-01T13:48:48;19.93;;;17.07;;
577;SDS011;275;48.492;9.214;2023-03-01T13:51:20;21.20;;;19.10;;
577;SDS011;275;48.492;9.214;2023-03-01T13:53:49;20.30;;;18.20;;
577;SDS011;275;48.492;9.214;2023-03-01T13:56:17;19.90;;;17.93;;
577;SDS011;275;48.492;9.214;2023-03-01T13:58:47;20.90;;;18.50;;
577;SDS011;275;48.492;9.214;2023-03-01T14:04:02;22.43;;;20.23;;
577;SDS011;275;48.492;9.214;2023-03-01T14:06:44;20.10;;;18.10;;
577;SDS011;275;48.492;9.214;2023-03-01T14:09:14;22.13;;;20.00;;
577;SDS011;275;48.492;9.214;2023-03-01T14:12:03;20.10;;;18.20;;
577;SDS011;275;48.492;9.214;2023-03-01T14:14:46;22.30;;;20.10;;
577;SDS011;275;48.492;9.214;2023-03-01T14:20:25;21.30;;;19.20;;
577;SDS011;275;48.492;9.214;2023-03-01T14:22:55;21.70;;;19.70;;
577;SDS011;275;48.492;9.214;2023-03-01T14:25:26;21.77;;;19.57;;
577;SDS011;275;48.492;9.214;2023-03-01T14:27:56;21.70;;;19.53;;
577;SDS011;275;48.492;9.214;2023-03-01T14:30:26;21.10;;;19.20;;
577;SDS011;275;48.492;9.214;2023-03-01T14:32:58;21.37;;;19.07;;
577;SDS011;275;48.492;9.214;2023-03-01T14:35:28;22.57;;;20.27;;
577;SDS011;275;48.492;9.214;2023-03-01T14:37:56;20.67;;;18.77;;
577;SDS011;275;48.492;9.214;2023-03-01T14:40:28;22.87;;;20.67;;
577;SDS011;275;48.492;9.214;2023-03-01T14:42:59;21.85;;;19.75;;
577;SDS011;275;48.492;9.214;2023-03-01T14:45:29;21.77;;;19.77;;
577;SDS011;275;48.492;9.214;2023-03-01T14:47:58;20.48;;;18.42;;
577;SDS011;275;48.492;9.214;2023-03-01T14:50:29;20.52;;;18.70;;
577;SDS011;275;48.492;9.214;2023-03-01T14:52:58;21.85;;;19.75;;
577;SDS011;275;48.492;9.214;2023-03-01T14:55:28;21.65;;;19.40;;
577;SDS011;275;48.492;9.214;2023-03-01T14:57:59;22.20;;;20.17;;
577;SDS011;275;48.492;9.214;2023-03-01T15:00:30;22.70;;;20.50;;
577;SDS011;275;48.492;9.214;2023-03-01T15:03:00;22.40;;;20.30;;
577;SDS011;275;48.492;9.214;2023-03-01T15:05:36;20.45;;;18.38;;
577;SDS011;275;48.492;9.214;2023-03-01T15:08:03;21.40;;;19.38;;
577;SDS011;275;48.492;9.214;2023-03-01T15:10:32;23.10;;;20.75;;
577;SDS011;275;48.492;9.214;2023-03-01T15:13:09;22.75;;;20.63;;
577;SDS011;275;48.492;9.214;2023-03-01T15:15:41;22.20;;;20.05;;
577;SDS011;275;48.492;9.214;2023-03-01T15:18:15;21.90;;;19.63;;
577;SDS011;275;48.492;9.214;2023-03-01T15:20:46;23.10;;;20.85;;
577;SDS011;275;48.492;9.214;2023-03-01T15:23:17;22.77;;;20.58;;
577;SDS011;275;48.492;9.214;2023-03-01T15:25:47;24.20;;;21.75;;
577;SDS011;275;48.492;9.214;2023-03-01T15:28:21;23.30;;;21.10;;
577;SDS011;275;48.492;9.214;2023-03-01T15:30:52;23.00;;;20.75;;
577;SDS011;275;48.492;9.214;2023-03-01T15:33:32;24.60;;;22.20;;
577;SDS011;275;48.492;9.214;2023-03-01T15:36:03;24.27;;;21.75;;
577;SDS011;275;48.492;9.214;2023-03-01T15:38:51;24.25;;;22.05;;
577;SDS011;275;48.492;9.214;2023-03-01T15:41:24;22.88;;;20.63;;
577;SDS011;275;48.492;9.214;2023-03-01T15:43:52;24.13;;;21.83;;
577;SDS011;275;48.492;9.214;2023-03-01T15:46:25;23.20;;;20.98;;
577;SDS011;275;48.492;9.214;2023-03-01T15:48:55;24.27;;;22.02;;
577;SDS011;275;48.492;9.214;2023-03-01T15:51:29;25.80;;;23.10;;
577;SDS011;275;48.492;9.214;2023-03-01T15:53:59;23.88;;;21.85;;
577;SDS011;275;48.492;9.214;2023-03-01T15:56:29;25.25;;;22.35;;
577;SDS011;275;48.492;9.214;2023-03-01T15:59:00;23.85;;;21.55;;
577;SDS011;275;48.492;9.214;2023-03-01T16:01:28;23.38;;;21.05;;
577;SDS011;275;48.492;9.214;2023-03-01T16:03:55;22.80;;;20.42;;